Time;durP1;ratioP1;P1;durP2;ratioP2;P2;SDS_P1;SDS_P2;PMS_P1;PMS_P2;Temp;Humidity;BMP_temperature;BMP_pressure;BME280_temperature;BME280_humidity;BME280_pressure;Samples;Min_cycle;Max_cycle;Signal;HPM_P1;HPM_P2
2021/10/13 00:00:08;;;;;;;4.07;2.15;;;18.40;80.50;;;;;;5072357;28;20024;-81
2021/10/13 00:02:33;;;;;;;4.57;1.40;;;18.40;80.50;;;;;;5070804;28;20392;-79
2021/10/13 00:04:59;;;;;;;3.67;1.75;;;18.40;81.20;;;;;;5072025;28;20024;-78
2021/10/13 00:07:25;;;;;;;3.60;2.00;;;18.40;80.40;;;;;;5071634;28;20032;-79
2021/10/13 00:09:51;;;;;;;6.30;2.03;;;18.40;80.40;;;;;;5071766;28;20020;-80
2021/10/13 00:12:17;;;;;;;4.63;1.80;;;18.40;80.30;;;;;;5071745;28;20028;-81
2021/10/13 00:14:43;;;;;;;2.83;2.13;;;18.30;80.20;;;;;;5071886;28;20114;-81
2021/10/13 00:17:09;;;;;;;6.10;1.98;;;18.30;80.20;;;;;;5071959;28;20036;-80
2021/10/13 00:19:35;;;;;;;4.30;2.05;;;18.30;80.20;;;;;;5071229;28;20016;-79
2021/10/13 00:22:00;;;;;;;5.05;1.67;;;18.30;80.20;;;;;;5071951;28;20036;-81
2021/10/13 00:24:26;;;;;;;4.90;1.77;;;18.30;80.10;;;;;;5071290;28;20477;-79
2021/10/13 00:26:52;;;;;;;5.03;1.98;;;18.30;80.10;;;;;;5071170;28;20484;-79
2021/10/13 00:29:18;;;;;;;4.22;1.75;;;18.30;80.00;;;;;;5071346;28;20074;-79
2021/10/13 00:31:44;;;;;;;3.70;2.10;;;18.30;80.00;;;;;;5071857;28;20032;-80
2021/10/13 00:34:09;;;;;;;2.88;1.60;;;18.30;80.00;;;;;;5071632;28;20540;-78
2021/10/13 00:36:35;;;;;;;4.00;1.92;;;18.30;79.90;;;;;;5071278;28;20429;-80
2021/10/13 00:39:01;;;;;;;3.58;1.58;;;18.30;79.90;;;;;;5071657;28;20353;-78
2021/10/13 00:41:26;;;;;;;2.78;1.63;;;18.20;79.80;;;;;;5070833;28;20032;-79
2021/10/13 00:43:52;;;;;;;5.05;1.80;;;18.20;79.70;;;;;;5071349;28;20442;-79
2021/10/13 00:46:18;;;;;;;3.25;1.67;;;18.20;79.70;;;;;;5071091;28;20071;-77
2021/10/13 00:48:43;;;;;;;2.47;1.45;;;18.20;79.70;;;;;;5071407;28;20027;-79
2021/10/13 00:51:09;;;;;;;4.13;1.70;;;18.20;79.60;;;;;;5070729;28;20492;-80
2021/10/13 00:53:35;;;;;;;3.13;1.38;;;18.20;79.60;;;;;;5069990;28;20036;-79
2021/10/13 00:56:01;;;;;;;4.57;1.63;;;18.20;79.50;;;;;;5071538;28;20544;-78
2021/10/13 00:58:27;;;;;;;2.35;1.30;;;18.20;79.40;;;;;;5070807;28;20028;-80
2021/10/13 01:01:01;;;;;;;4.90;1.70;;;18.20;79.40;;;;;;5070184;28;20103;-80
2021/10/13 01:03:37;;;;;;;4.32;1.98;;;18.20;79.40;;;;;;5071109;28;20012;-79
2021/10/13 01:06:15;;;;;;;3.67;1.83;;;18.10;79.30;;;;;;5070515;28;20020;-79
2021/10/13 01:08:56;;;;;;;6.35;2.00;;;18.10;79.20;;;;;;5070583;28;20021;-80
2021/10/13 01:11:32;;;;;;;4.35;1.70;;;18.10;79.20;;;;;;5070168;28;20037;-82
2021/10/13 01:14:19;;;;;;;3.40;1.70;;;18.10;79.10;;;;;;5070727;28;20081;-78
2021/10/13 01:17:17;;;;;;;2.50;1.42;;;18.10;79.10;;;;;;5068901;28;20087;-81
2021/10/13 01:19:43;;;;;;;3.63;1.48;;;18.10;79.10;;;;;;5071157;28;20400;-78
2021/10/13 01:22:39;;;;;;;2.88;1.48;;;18.00;78.90;;;;;;5070503;28;20480;-81
2021/10/13 01:25:30;;;;;;;3.47;1.50;;;18.10;79.70;;;;;;5070509;28;20024;-82
2021/10/13 01:28:00;;;;;;;3.90;1.88;;;18.10;78.80;;;;;;5053059;28;20163;-81
2021/10/13 01:30:31;;;;;;;2.22;1.17;;;18.00;79.50;;;;;;5071001;28;20033;-81
2021/10/13 01:33:12;;;;;;;3.10;1.52;;;18.00;78.80;;;;;;5070380;28;20038;-82
2021/10/13 01:35:45;;;;;;;3.85;1.75;;;18.00;78.60;;;;;;5070379;28;20404;-80
2021/10/13 01:38:16;;;;;;;3.13;1.30;;;18.00;78.60;;;;;;5070457;28;20021;-81
2021/10/13 01:40:43;;;;;;;3.47;1.58;;;18.00;78.60;;;;;;5069817;28;20067;-80
2021/10/13 01:43:12;;;;;;;3.63;1.58;;;18.00;78.60;;;;;;5071204;28;20040;-81
2021/10/13 01:45:39;;;;;;;4.07;1.75;;;18.00;78.50;;;;;;5069902;28;20353;-81
2021/10/13 01:48:06;;;;;;;3.33;1.40;;;18.00;78.50;;;;;;5069992;28;20060;-81
2021/10/13 01:50:32;;;;;;;3.95;1.88;;;18.00;78.40;;;;;;5070497;28;20028;-80
2021/10/13 01:52:59;;;;;;;3.25;1.40;;;18.00;78.30;;;;;;5069666;28;20028;-81
2021/10/13 01:55:26;;;;;;;3.10;1.85;;;18.00;78.30;;;;;;5070709;28;20116;-80
2021/10/13 01:57:55;;;;;;;3.25;1.92;;;17.90;78.20;;;;;;5070732;28;20031;-79
2021/10/13 02:00:23;;;;;;;2.88;1.48;;;17.90;78.10;;;;;;5070059;28;20107;-81
2021/10/13 02:02:50;;;;;;;3.38;1.52;;;17.90;78.10;;;;;;5070624;28;20059;-79
2021/10/13 02:05:16;;;;;;;2.67;1.50;;;17.90;78.60;;;;;;5074845;28;20060;-78
2021/10/13 02:07:45;;;;;;;2.92;1.25;;;17.90;78.10;;;;;;5073481;28;20028;-78
2021/10/13 02:10:12;;;;;;;3.33;1.35;;;17.90;78.00;;;;;;5074232;28;20380;-77
2021/10/13 02:12:43;;;;;;;3.53;1.52;;;17.90;78.00;;;;;;5088530;28;20093;-77
2021/10/13 02:15:11;;;;;;;3.53;1.65;;;17.90;78.00;;;;;;5074003;28;20141;-78
2021/10/13 02:17:40;;;;;;;3.53;1.30;;;17.90;77.90;;;;;;5072941;28;20060;-77
2021/10/13 02:20:07;;;;;;;2.85;1.50;;;17.90;77.90;;;;;;5073496;28;20024;-77
2021/10/13 02:22:33;;;;;;;2.90;1.33;;;17.90;77.80;;;;;;5073182;28;20032;-80
2021/10/13 02:24:59;;;;;;;2.28;1.40;;;17.90;77.80;;;;;;5071997;28;20035;-79
2021/10/13 02:27:33;;;;;;;4.40;1.58;;;17.80;77.70;;;;;;5073925;28;20096;-76
2021/10/13 02:29:59;;;;;;;2.92;1.50;;;17.90;77.80;;;;;;5064745;28;20047;-80
2021/10/13 02:32:25;;;;;;;2.88;1.60;;;17.80;78.50;;;;;;5055304;28;20492;-78
2021/10/13 02:34:52;;;;;;;2.05;1.15;;;17.80;77.60;;;;;;5055629;28;20024;-81
2021/10/13 02:37:18;;;;;;;3.78;1.73;;;17.80;77.60;;;;;;5073382;28;20037;-77
2021/10/13 02:39:44;;;;;;;4.35;1.27;;;17.80;77.60;;;;;;5074000;28;20028;-78
2021/10/13 02:42:10;;;;;;;2.17;1.10;;;17.80;77.50;;;;;;5073819;28;20090;-80
2021/10/13 02:44:36;;;;;;;2.13;1.20;;;17.80;77.50;;;;;;5073609;28;20518;-77
2021/10/13 02:47:09;;;;;;;1.80;1.02;;;17.80;77.50;;;;;;5072749;28;20029;-80
2021/10/13 02:49:54;;;;;;;2.63;1.40;;;17.80;77.50;;;;;;5072423;28;20040;-78
2021/10/13 02:52:54;;;;;;;2.30;1.23;;;17.80;77.50;;;;;;5073556;28;20502;-79
2021/10/13 02:55:24;;;;;;;3.25;1.55;;;17.80;78.20;;;;;;5073259;28;20035;-80
2021/10/13 02:58:10;;;;;;;2.85;1.50;;;17.80;77.40;;;;;;5056091;28;20032;-78
2021/10/13 03:00:37;;;;;;;3.22;1.42;;;17.80;77.30;;;;;;5072965;28;20056;-79
2021/10/13 03:03:12;;;;;;;3.35;1.10;;;17.70;77.30;;;;;;5072625;28;20035;-80
2021/10/13 03:05:39;;;;;;;3.30;1.33;;;17.70;77.20;;;;;;5072760;28;20384;-80
2021/10/13 03:08:08;;;;;;;2.67;1.20;;;17.70;77.20;;;;;;5073657;28;20040;-79
2021/10/13 03:10:35;;;;;;;2.70;1.17;;;17.70;77.20;;;;;;5073295;28;20032;-79
2021/10/13 03:13:03;;;;;;;3.10;1.45;;;17.70;77.10;;;;;;5073035;28;20036;-79
2021/10/13 03:15:30;;;;;;;3.28;1.40;;;17.70;77.10;;;;;;5071991;28;20141;-79
2021/10/13 03:17:58;;;;;;;3.28;1.55;;;17.70;77.10;;;;;;5072934;28;20024;-78
2021/10/13 03:20:25;;;;;;;3.30;1.27;;;17.70;77.10;;;;;;5073216;28;20036;-80
2021/10/13 03:22:55;;;;;;;3.65;1.30;;;17.70;77.00;;;;;;5072569;28;20107;-78
2021/10/13 03:25:29;;;;;;;3.42;1.70;;;17.70;77.00;;;;;;5072493;28;20028;-77
2021/10/13 03:27:55;;;;;;;3.85;1.23;;;17.70;77.00;;;;;;5072915;28;20040;-79
2021/10/13 03:30:21;;;;;;;3.50;1.30;;;17.70;77.40;;;;;;5072074;28;20039;-78
2021/10/13 03:32:48;;;;;;;2.67;1.50;;;17.70;77.00;;;;;;5072915;28;20455;-78
2021/10/13 03:35:22;;;;;;;2.97;1.40;;;17.70;77.00;;;;;;5073541;28;20108;-78
2021/10/13 03:37:48;;;;;;;2.45;1.25;;;17.70;76.90;;;;;;5054832;28;20040;-78
2021/10/13 03:40:13;;;;;;;2.83;1.25;;;17.60;76.80;;;;;;5073437;28;20553;-78
2021/10/13 03:42:39;;;;;;;3.72;1.40;;;17.60;76.80;;;;;;5072825;28;20024;-78
2021/10/13 03:45:05;;;;;;;2.45;1.15;;;17.60;76.80;;;;;;5072158;28;20024;-78
2021/10/13 03:47:31;;;;;;;2.70;1.20;;;17.60;76.80;;;;;;5072217;28;20388;-79
2021/10/13 03:49:56;;;;;;;2.33;1.30;;;17.70;76.80;;;;;;5072872;28;20025;-80
2021/10/13 03:52:22;;;;;;;2.92;1.25;;;17.60;76.70;;;;;;5071996;28;20024;-77
2021/10/13 03:54:47;;;;;;;3.67;1.27;;;17.60;76.70;;;;;;5072888;28;20024;-77
2021/10/13 03:57:13;;;;;;;2.53;1.17;;;17.60;77.40;;;;;;5073084;28;20535;-78
2021/10/13 03:59:39;;;;;;;2.90;1.20;;;17.60;76.70;;;;;;5071868;28;20039;-78
2021/10/13 04:02:04;;;;;;;2.38;1.20;;;17.60;76.60;;;;;;5072710;28;20503;-79
2021/10/13 04:04:30;;;;;;;2.40;1.42;;;17.60;76.60;;;;;;5072332;28;20217;-77
2021/10/13 04:06:55;;;;;;;2.92;1.30;;;17.60;76.60;;;;;;5072267;28;20033;-80
2021/10/13 04:09:21;;;;;;;2.03;1.00;;;17.60;76.60;;;;;;5070779;28;20500;-79
2021/10/13 04:11:47;;;;;;;2.38;0.93;;;17.60;76.60;;;;;;5072401;28;20035;-80
2021/10/13 04:14:12;;;;;;;4.63;1.50;;;17.60;76.60;;;;;;5071509;28;20103;-78
2021/10/13 04:16:38;;;;;;;2.50;1.40;;;17.60;76.60;;;;;;5071219;28;20044;-78
2021/10/13 04:19:03;;;;;;;4.15;1.20;;;17.60;76.50;;;;;;5071550;28;20025;-81
2021/10/13 04:21:29;;;;;;;3.88;1.55;;;17.50;76.40;;;;;;5071138;28;20032;-77
2021/10/13 04:23:55;;;;;;;2.15;0.98;;;17.50;76.40;;;;;;5071901;28;20032;-80
2021/10/13 04:26:20;;;;;;;2.72;1.63;;;17.50;76.40;;;;;;5071081;28;20032;-79
2021/10/13 04:28:46;;;;;;;2.47;1.15;;;17.50;76.40;;;;;;5072028;28;20029;-78
2021/10/13 04:31:12;;;;;;;2.55;1.10;;;17.50;76.40;;;;;;5071278;28;20028;-79
2021/10/13 04:33:38;;;;;;;3.35;1.38;;;17.50;76.30;;;;;;5071305;28;20550;-78
2021/10/13 04:36:03;;;;;;;2.42;1.30;;;17.50;76.30;;;;;;5071516;28;20037;-80
2021/10/13 04:38:29;;;;;;;2.90;1.10;;;17.50;76.40;;;;;;5070701;28;20032;-77
2021/10/13 04:40:55;;;;;;;3.35;1.20;;;17.50;76.30;;;;;;5071172;28;20032;-79
2021/10/13 04:43:20;;;;;;;1.70;1.17;;;17.50;76.30;;;;;;5071245;28;20029;-80
2021/10/13 04:45:46;;;;;;;1.83;1.00;;;17.50;76.30;;;;;;5071469;28;20059;-78
2021/10/13 04:48:11;;;;;;;1.58;0.85;;;17.50;76.30;;;;;;5053499;28;20373;-79
2021/10/13 04:50:37;;;;;;;3.42;1.10;;;17.50;76.20;;;;;;5070620;28;20033;-79
2021/10/13 04:53:02;;;;;;;2.10;1.15;;;17.50;76.10;;;;;;5071366;28;20051;-79
2021/10/13 04:55:28;;;;;;;2.78;0.95;;;17.50;76.10;;;;;;5071328;28;20037;-79
2021/10/13 04:57:54;;;;;;;2.88;1.13;;;17.50;76.10;;;;;;5071105;28;20079;-78
2021/10/13 05:00:20;;;;;;;3.28;1.13;;;;;;;;;;5070282;28;20025;-79
2021/10/13 05:02:46;;;;;;;2.65;1.17;;;;;;;;;;5070842;28;20021;-79
2021/10/13 05:05:12;;;;;;;2.88;1.10;;;;;;;;;;5070721;28;20426;-80
2021/10/13 05:07:38;;;;;;;2.58;1.13;;;;;;;;;;5070434;28;20116;-79
2021/10/13 05:10:04;;;;;;;2.33;1.10;;;;;;;;;;5069970;28;20116;-77
2021/10/13 05:12:30;;;;;;;3.63;1.20;;;;;;;;;;5069960;28;20036;-79
2021/10/13 05:14:56;;;;;;;5.03;1.10;;;;;;;;;;5070716;28;20031;-77
2021/10/13 05:17:22;;;;;;;2.40;1.15;;;;;;;;;;5071099;28;20044;-80
2021/10/13 05:19:48;;;;;;;2.95;1.17;;;;;;;;;;5070881;28;20081;-80
2021/10/13 05:22:14;;;;;;;2.05;1.05;;;;;;;;;;5070675;28;20376;-79
2021/10/13 05:24:40;;;;;;;2.08;1.27;;;;;;;;;;5070685;28;20031;-77
2021/10/13 05:27:06;;;;;;;2.63;1.10;;;;;;;;;;5069930;28;20028;-79
2021/10/13 05:29:32;;;;;;;3.50;1.25;;;;;;;;;;5070406;28;20451;-79
2021/10/13 05:31:58;;;;;;;3.22;1.15;;;;;;;;;;5071261;28;20377;-77
2021/10/13 05:34:24;;;;;;;2.95;0.90;;;;;;;;;;5070481;28;20044;-79
2021/10/13 05:36:50;;;;;;;2.65;0.90;;;;;;;;;;5070703;28;20137;-78
2021/10/13 05:39:16;;;;;;;1.90;0.98;;;;;;;;;;5069898;28;20480;-81
2021/10/13 05:41:42;;;;;;;1.92;0.98;;;;;;;;;;5069093;28;20024;-80
2021/10/13 05:44:08;;;;;;;3.67;1.10;;;;;;;;;;5070322;28;20526;-78
2021/10/13 05:46:34;;;;;;;2.33;0.98;;;;;;;;;;5069976;28;20024;-79
2021/10/13 05:49:00;;;;;;;2.45;1.10;;;;;;;;;;5070764;28;20029;-80
2021/10/13 05:51:26;;;;;;;2.72;0.98;;;;;;;;;;5061937;28;20103;-78
2021/10/13 05:53:52;;;;;;;1.98;0.98;;;;;;;;;;5070623;28;20029;-78
2021/10/13 05:56:18;;;;;;;2.28;0.90;;;;;;;;;;5070390;28;20063;-78
2021/10/13 05:58:46;;;;;;;1.73;1.00;;;;;;;;;;5070153;28;20400;-77
2021/10/13 06:01:18;;;;;;;2.38;1.20;;;;;;;;;;5069534;28;20017;-80
2021/10/13 06:03:44;;;;;;;2.03;0.90;;;;;;;;;;5052717;28;20098;-79
2021/10/13 06:06:10;;;;;;;1.63;0.90;;;;;;;;;;5070489;28;20508;-84
2021/10/13 06:08:36;;;;;;;1.90;1.13;;;;;;;;;;5069737;28;20054;-80
2021/10/13 06:11:02;;;;;;;2.15;0.90;;;;;;;;;;5069177;28;20400;-81
2021/10/13 06:13:28;;;;;;;1.98;1.00;;;;;;;;;;5084755;28;20491;-81
2021/10/13 06:15:54;;;;;;;1.55;0.90;;;;;;;;;;5070113;28;20499;-78
2021/10/13 06:18:20;;;;;;;6.53;1.10;;;;;;;;;;5069763;28;20404;-80
2021/10/13 06:20:46;;;;;;;2.00;1.00;;;;;;;;;;5070113;28;20036;-81
2021/10/13 06:23:12;;;;;;;3.40;1.20;;;18.40;76.30;;;;;;5070700;28;20096;-80
2021/10/13 06:25:38;;;;;;;2.70;1.08;;;;;;;;;;5069330;28;20591;-83
2021/10/13 06:28:04;;;;;;;3.20;1.10;;;18.50;76.40;;;;;;5070010;28;20040;-79
2021/10/13 06:30:32;;;;;;;7.03;0.90;;;18.50;76.80;;;;;;5069757;28;20035;-78
2021/10/13 06:32:58;;;;;;;3.80;1.23;;;18.50;76.70;;;;;;5069915;28;20047;-77
2021/10/13 06:35:23;;;;;;;2.85;0.95;;;18.50;76.70;;;;;;5070253;28;20077;-77
2021/10/13 06:37:49;;;;;;;3.55;1.30;;;18.60;76.70;;;;;;5070098;28;20036;-79
2021/10/13 06:40:15;;;;;;;3.63;1.20;;;18.60;76.40;;;;;;5070143;28;20023;-77
2021/10/13 06:42:41;;;;;;;2.78;1.52;;;18.60;76.20;;;;;;5069251;28;20496;-77
2021/10/13 06:45:08;;;;;;;3.55;1.20;;;18.60;76.10;;;;;;5069257;28;20537;-77
2021/10/13 06:47:34;;;;;;;3.38;1.42;;;18.60;76.00;;;;;;5069431;28;20036;-78
2021/10/13 06:50:00;;;;;;;4.60;1.50;;;18.60;75.80;;;;;;5069879;28;20068;-78
2021/10/13 06:52:26;;;;;;;6.18;1.48;;;18.60;75.90;;;;;;5073177;28;20492;-78
2021/10/13 06:54:52;;;;;;;2.28;1.15;;;18.60;75.60;;;;;;5072798;28;20394;-78
2021/10/13 06:57:18;;;;;;;3.78;1.50;;;18.70;75.80;;;;;;5068154;28;20037;-78
2021/10/13 06:59:43;;;;;;;3.45;1.35;;;18.70;75.60;;;;;;5072713;28;20100;-78
2021/10/13 07:02:09;;;;;;;3.40;1.45;;;18.70;75.50;;;;;;5073790;28;20032;-79
2021/10/13 07:04:35;;;;;;;6.43;1.30;;;18.70;75.10;;;;;;5073062;28;20420;-79
2021/10/13 07:07:00;;;;;;;5.20;1.80;;;18.70;75.20;;;;;;5073652;28;20020;-79
2021/10/13 07:09:26;;;;;;;5.97;1.60;;;18.60;75.30;;;;;;5073439;28;20091;-79
2021/10/13 07:11:52;;;;;;;4.78;2.08;;;18.60;75.30;;;;;;5073494;28;20032;-79
2021/10/13 07:14:17;;;;;;;4.25;1.58;;;18.60;75.10;;;;;;5072883;28;20468;-78
2021/10/13 07:16:45;;;;;;;5.60;1.38;;;18.60;75.00;;;;;;5072194;28;20060;-79
2021/10/13 07:19:11;;;;;;;5.47;1.63;;;18.60;74.80;;;;;;5071808;28;20108;-78
2021/10/13 07:21:37;;;;;;;3.60;1.08;;;18.60;74.70;;;;;;5071534;28;20135;-78
2021/10/13 07:24:02;;;;;;;6.65;1.70;;;18.60;74.60;;;;;;5071719;28;20033;-78
2021/10/13 07:26:29;;;;;;;3.47;1.60;;;18.60;74.60;;;;;;5071516;28;20500;-79
2021/10/13 07:28:55;;;;;;;3.35;1.35;;;18.60;74.50;;;;;;5071681;28;20412;-80
2021/10/13 07:31:21;;;;;;;4.43;1.83;;;18.50;74.40;;;;;;5071303;28;20029;-79
2021/10/13 07:33:46;;;;;;;3.67;1.15;;;18.50;74.40;;;;;;5071908;28;20020;-78
2021/10/13 07:36:12;;;;;;;5.70;1.83;;;18.50;74.40;;;;;;5071914;28;20036;-79
2021/10/13 07:38:39;;;;;;;4.18;1.70;;;18.50;74.40;;;;;;5072884;28;20029;-80
2021/10/13 07:41:05;;;;;;;3.63;1.33;;;18.50;74.40;;;;;;5072899;28;20104;-78
2021/10/13 07:43:32;;;;;;;2.97;1.20;;;18.50;74.30;;;;;;5072748;28;20107;-78
2021/10/13 07:45:58;;;;;;;3.08;1.30;;;18.40;74.30;;;;;;5073007;28;20099;-78
2021/10/13 07:48:25;;;;;;;3.20;1.77;;;18.40;74.20;;;;;;5072775;28;20108;-80
2021/10/13 07:50:51;;;;;;;3.20;1.50;;;18.40;74.20;;;;;;5054904;28;20024;-80
2021/10/13 07:53:17;;;;;;;4.35;1.52;;;18.40;74.30;;;;;;5073104;28;20016;-80
2021/10/13 07:55:43;;;;;;;3.78;1.73;;;18.40;74.30;;;;;;5073178;28;20071;-79
2021/10/13 07:58:08;;;;;;;5.57;1.63;;;18.40;74.30;;;;;;5072855;28;20064;-80
2021/10/13 08:00:34;;;;;;;4.75;2.05;;;18.40;74.10;;;;;;5072318;28;20044;-80
2021/10/13 08:03:00;;;;;;;3.78;1.30;;;18.40;74.00;;;;;;5072442;28;20027;-81
2021/10/13 08:05:25;;;;;;;3.15;1.38;;;18.30;73.90;;;;;;5072375;28;20021;-78
2021/10/13 08:07:51;;;;;;;4.40;1.52;;;18.30;73.90;;;;;;5072422;28;20419;-79
2021/10/13 08:10:17;;;;;;;5.75;1.90;;;18.30;73.80;;;;;;5071233;28;20024;-79
2021/10/13 08:12:43;;;;;;;4.65;2.03;;;18.30;73.80;;;;;;5051380;28;20043;-78
2021/10/13 08:15:09;;;;;;;5.68;1.90;;;18.30;73.70;;;;;;5071117;28;20466;-79
2021/10/13 08:17:35;;;;;;;3.72;1.55;;;18.30;73.70;;;;;;5071346;28;20039;-79
2021/10/13 08:20:03;;;;;;;3.03;1.58;;;18.30;73.70;;;;;;5071529;28;20028;-80
2021/10/13 08:22:29;;;;;;;4.75;1.85;;;18.30;73.70;;;;;;5071886;28;20055;-79
2021/10/13 08:24:55;;;;;;;3.60;1.88;;;18.30;73.70;;;;;;5072001;28;20448;-79
2021/10/13 08:27:21;;;;;;;3.47;1.40;;;18.30;73.60;;;;;;5071815;28;20071;-78
2021/10/13 08:29:47;;;;;;;6.40;1.70;;;18.30;73.70;;;;;;5072353;28;20435;-78
2021/10/13 08:32:12;;;;;;;3.65;1.50;;;18.20;73.60;;;;;;5070650;28;20119;-78
2021/10/13 08:34:38;;;;;;;4.32;1.80;;;18.20;73.60;;;;;;5071746;28;20480;-79
2021/10/13 08:37:06;;;;;;;3.42;1.63;;;18.20;73.40;;;;;;5070905;28;20095;-78
2021/10/13 08:39:32;;;;;;;3.47;1.30;;;18.20;73.50;;;;;;5070815;28;20025;-79
2021/10/13 08:41:58;;;;;;;3.05;1.52;;;18.20;73.40;;;;;;5070886;28;20029;-78
2021/10/13 08:44:24;;;;;;;5.45;2.00;;;18.20;73.40;;;;;;5053719;28;20059;-78
2021/10/13 08:46:50;;;;;;;4.38;2.00;;;18.20;73.40;;;;;;5071427;28;20021;-78
2021/10/13 08:49:15;;;;;;;3.42;1.60;;;18.20;73.40;;;;;;5071712;28;20388;-78
2021/10/13 08:51:41;;;;;;;5.85;2.00;;;18.20;73.40;;;;;;5071076;28;20525;-78
2021/10/13 08:54:13;;;;;;;4.00;1.33;;;18.20;73.30;;;;;;5070597;28;20028;-78
2021/10/13 08:56:39;;;;;;;5.90;1.75;;;18.20;73.30;;;;;;5069773;28;20086;-78
2021/10/13 08:59:04;;;;;;;5.78;1.90;;;18.20;73.30;;;;;;5070210;28;20106;-77
2021/10/13 09:01:30;;;;;;;4.95;1.63;;;18.20;73.20;;;;;;5069774;28;20530;-78
2021/10/13 09:03:58;;;;;;;3.83;1.65;;;18.20;73.40;;;;;;5070039;28;20062;-79
2021/10/13 09:06:27;;;;;;;8.65;2.30;;;18.20;73.40;;;;;;5069681;28;20032;-80
2021/10/13 09:09:11;;;;;;;6.38;1.80;;;18.20;73.30;;;;;;5069748;28;20029;-80
2021/10/13 09:11:44;;;;;;;6.68;1.90;;;18.20;73.30;;;;;;5069877;28;20595;-79
2021/10/13 09:14:25;;;;;;;4.22;1.80;;;18.20;73.30;;;;;;5052427;28;20055;-80
2021/10/13 09:16:50;;;;;;;4.28;1.67;;;18.20;73.40;;;;;;5071332;28;20032;-79
2021/10/13 09:19:16;;;;;;;5.38;1.67;;;18.20;73.20;;;;;;5071658;28;20020;-80
2021/10/13 09:21:50;;;;;;;6.15;2.10;;;18.20;73.10;;;;;;5070509;28;20024;-79
2021/10/13 09:24:16;;;;;;;4.50;1.77;;;18.20;73.20;;;;;;5070128;28;20020;-80
2021/10/13 09:26:42;;;;;;;4.57;1.83;;;18.10;73.20;;;;;;5071052;28;20066;-79
2021/10/13 09:29:08;;;;;;;4.82;1.77;;;18.10;73.20;;;;;;5071264;28;20025;-80
2021/10/13 09:31:34;;;;;;;5.95;2.05;;;18.20;73.20;;;;;;5069807;28;20119;-79
2021/10/13 09:34:02;;;;;;;3.80;1.50;;;18.10;73.10;;;;;;5069537;28;20544;-80
2021/10/13 09:36:42;;;;;;;4.68;1.88;;;18.20;73.30;;;;;;5052298;28;20110;-79
2021/10/13 09:39:19;;;;;;;7.88;2.15;;;18.10;73.20;;;;;;5052630;28;20028;-79
2021/10/13 09:42:10;;;;;;;10.60;2.05;;;18.20;73.20;;;;;;5071026;28;20028;-80
2021/10/13 09:44:40;;;;;;;4.97;1.58;;;18.20;73.20;;;;;;5070882;28;20028;-80
2021/10/13 09:47:09;;;;;;;6.13;1.80;;;18.20;73.30;;;;;;5069935;28;20460;-80
2021/10/13 09:49:37;;;;;;;5.32;2.47;;;18.20;73.30;;;;;;5052515;28;20055;-80
2021/10/13 09:52:10;;;;;;;3.95;1.92;;;18.20;73.30;;;;;;5070159;28;20039;-79
2021/10/13 09:54:38;;;;;;;4.30;1.80;;;18.20;73.50;;;;;;5070249;28;20059;-80
2021/10/13 09:57:20;;;;;;;8.73;2.10;;;18.30;73.70;;;;;;5070880;28;20048;-79
2021/10/13 10:00:13;;;;;;;5.13;1.60;;;18.30;73.90;;;;;;5071314;28;20017;-80
2021/10/13 10:02:54;;;;;;;5.72;2.40;;;18.40;73.90;;;;;;5066849;28;20042;-79
2021/10/13 10:05:24;;;;;;;4.20;1.70;;;18.40;73.90;;;;;;5066442;28;20025;-80
2021/10/13 10:08:07;;;;;;;5.95;1.73;;;18.40;74.00;;;;;;5070820;28;20056;-80
2021/10/13 10:10:34;;;;;;;4.55;1.88;;;18.50;74.10;;;;;;5070700;28;20029;-80
2021/10/13 10:13:05;;;;;;;2.45;1.35;;;18.50;74.20;;;;;;5069472;28;20020;-79
2021/10/13 10:15:38;;;;;;;3.85;1.42;;;18.60;74.30;;;;;;5066342;28;20064;-78
2021/10/13 10:18:33;;;;;;;5.93;1.88;;;18.60;74.30;;;;;;5069263;28;20033;-80
2021/10/13 10:21:18;;;;;;;4.57;1.65;;;18.80;74.30;;;;;;5063453;28;20040;-78
2021/10/13 10:23:48;;;;;;;7.45;1.55;;;18.80;74.10;;;;;;5068060;28;20070;-77
2021/10/13 10:26:26;;;;;;;7.68;1.67;;;18.90;74.20;;;;;;5071013;28;20461;-79
2021/10/13 10:28:54;;;;;;;6.57;1.58;;;18.90;74.30;;;;;;5074257;28;20021;-79
2021/10/13 10:31:29;;;;;;;3.85;1.50;;;19.00;74.30;;;;;;5073131;28;20028;-78
2021/10/13 10:34:06;;;;;;;4.47;1.83;;;19.00;74.20;;;;;;5071816;28;20496;-79
2021/10/13 10:36:35;;;;;;;3.63;1.85;;;19.10;74.30;;;;;;5054857;28;20121;-79
2021/10/13 10:39:20;;;;;;;3.85;1.58;;;19.10;74.20;;;;;;5072564;28;20377;-79
2021/10/13 10:41:53;;;;;;;7.43;1.60;;;19.20;74.10;;;;;;5070900;28;20023;-78
2021/10/13 10:44:39;;;;;;;8.02;1.30;;;19.30;73.90;;;;;;5069765;28;20107;-81
2021/10/13 10:47:07;;;;;;;6.57;2.17;;;19.40;74.00;;;;;;5070901;28;20469;-87
2021/10/13 10:49:49;;;;;;;3.85;1.60;;;19.40;73.80;;;;;;5072141;28;20017;-86
2021/10/13 10:52:25;;;;;;;6.53;1.90;;;19.50;73.70;;;;;;5072686;28;20028;-82
2021/10/13 10:54:56;;;;;;;5.45;1.65;;;19.60;73.70;;;;;;5072174;28;20028;-80
2021/10/13 10:57:32;;;;;;;6.20;1.75;;;19.70;73.80;;;;;;5069956;28;20452;-80
2021/10/13 10:59:59;;;;;;;7.88;2.22;;;19.80;73.80;;;;;;5069818;28;20095;-81
2021/10/13 11:02:25;;;;;;;3.88;1.95;;;19.80;73.70;;;;;;5072587;28;20059;-79
2021/10/13 11:05:05;;;;;;;4.78;2.30;;;19.90;73.60;;;;;;5072864;28;20493;-79
2021/10/13 11:07:31;;;;;;;4.82;1.85;;;19.90;73.50;;;;;;5071087;28;20020;-79
2021/10/13 11:10:02;;;;;;;4.18;1.88;;;20.00;73.40;;;;;;5072037;28;20075;-79
2021/10/13 11:12:44;;;;;;;3.88;1.70;;;20.10;73.60;;;;;;5071581;28;20036;-79
2021/10/13 11:15:10;;;;;;;3.65;1.58;;;20.10;73.40;;;;;;5053936;28;20400;-79
2021/10/13 11:17:35;;;;;;;4.40;1.90;;;20.20;73.40;;;;;;5071468;28;20036;-79
2021/10/13 11:20:15;;;;;;;4.68;1.58;;;20.30;73.20;;;;;;5072588;28;20476;-79
2021/10/13 11:22:40;;;;;;;4.53;2.00;;;20.40;72.90;;;;;;5071397;28;20086;-80
2021/10/13 11:25:18;;;;;;;4.72;1.77;;;20.50;72.70;;;;;;5073416;28;20522;-79
2021/10/13 11:28:07;;;;;;;6.78;1.63;;;20.60;72.50;;;;;;5072589;28;20024;-83
2021/10/13 11:30:44;;;;;;;4.93;1.75;;;20.70;72.40;;;;;;5068890;28;20057;-85
2021/10/13 11:33:14;;;;;;;2.97;1.58;;;20.80;72.20;;;;;;5058482;28;20028;-86
2021/10/13 11:35:40;;;;;;;4.65;1.45;;;21.00;71.90;;;;;;5083394;28;20542;-85
2021/10/13 11:38:06;;;;;;;4.90;1.90;;;21.10;71.20;;;;;;5085238;28;20020;-86
2021/10/13 11:40:34;;;;;;;5.47;2.13;;;21.10;71.00;;;;;;5075942;28;20020;-86
2021/10/13 11:43:07;;;;;;;5.88;1.42;;;21.10;71.10;;;;;;5059573;28;20023;-85
2021/10/13 11:45:33;;;;;;;6.30;1.83;;;21.20;71.20;;;;;;5084018;28;20111;-84
2021/10/13 11:48:00;;;;;;;2.75;1.10;;;21.30;70.20;;;;;;5081701;28;20174;-87
2021/10/13 11:50:30;;;;;;;3.35;1.30;;;21.30;70.10;;;;;;5072079;28;20483;-85
2021/10/13 11:52:58;;;;;;;2.45;1.13;;;21.40;69.80;;;;;;5071857;28;20025;-88
2021/10/13 11:55:28;;;;;;;2.63;1.17;;;21.70;69.30;;;;;;5072530;28;20024;-84
2021/10/13 11:57:59;;;;;;;6.20;1.50;;;21.90;68.80;;;;;;5071198;28;20052;-86
2021/10/13 12:00:26;;;;;;;4.65;1.33;;;22.30;67.70;;;;;;5070633;28;20032;-86
2021/10/13 12:03:06;;;;;;;5.20;1.65;;;22.60;66.30;;;;;;5071926;28;20054;-87
2021/10/13 12:05:32;;;;;;;3.17;1.48;;;22.80;65.70;;;;;;5072483;28;20028;-84
2021/10/13 12:08:28;;;;;;;3.17;1.25;;;22.80;65.50;;;;;;5071489;28;20366;-85
2021/10/13 12:11:02;;;;;;;4.30;1.25;;;22.80;65.30;;;;;;5045629;28;20037;-84
2021/10/13 12:13:30;;;;;;;4.03;1.17;;;22.80;65.40;;;;;;5071828;28;20037;-86
2021/10/13 12:16:05;;;;;;;2.92;1.10;;;22.90;64.90;;;;;;5070825;28;20299;-84
2021/10/13 12:18:47;;;;;;;3.20;1.38;;;22.90;64.70;;;;;;5070451;28;20392;-83
2021/10/13 12:21:25;;;;;;;4.18;1.48;;;22.80;64.90;;;;;;5072744;28;20032;-82
2021/10/13 12:23:58;;;;;;;2.78;1.00;;;22.80;65.00;;;;;;5072274;28;20020;-84
2021/10/13 12:26:30;;;;;;;6.07;1.27;;;22.60;65.60;;;;;;5071042;28;20039;-83
2021/10/13 12:28:57;;;;;;;3.35;1.40;;;22.50;66.20;;;;;;5071339;28;20143;-83
2021/10/13 12:31:29;;;;;;;3.80;1.20;;;22.40;66.60;;;;;;5071392;28;20031;-86
2021/10/13 12:34:02;;;;;;;2.15;1.00;;;22.20;66.90;;;;;;5072163;28;20020;-83
2021/10/13 12:36:40;;;;;;;2.60;1.08;;;22.10;67.00;;;;;;5071275;28;20036;-85
2021/10/13 12:39:09;;;;;;;2.10;0.98;;;22.10;67.50;;;;;;5071429;28;20159;-86
2021/10/13 12:41:41;;;;;;;3.28;1.27;;;22.10;67.60;;;;;;5071441;28;20032;-82
2021/10/13 12:44:25;;;;;;;4.63;1.25;;;22.00;67.60;;;;;;5071030;28;20115;-87
2021/10/13 12:46:57;;;;;;;2.80;1.10;;;22.00;67.90;;;;;;5071336;28;20411;-85
2021/10/13 12:49:25;;;;;;;3.22;1.05;;;22.10;67.90;;;;;;5071657;28;20017;-84
2021/10/13 12:52:03;;;;;;;2.80;1.20;;;22.10;67.90;;;;;;5071884;28;20039;-86
2021/10/13 12:54:36;;;;;;;3.75;1.45;;;22.10;68.00;;;;;;5069706;28;20028;-83
2021/10/13 12:57:03;;;;;;;2.40;1.20;;;22.10;68.00;;;;;;5068027;28;20025;-83
2021/10/13 12:59:29;;;;;;;1.83;0.80;;;22.10;68.30;;;;;;5070188;28;20099;-86
2021/10/13 13:01:55;;;;;;;2.72;0.80;;;22.00;68.40;;;;;;5069991;28;20028;-86
2021/10/13 13:04:21;;;;;;;2.00;0.90;;;22.00;68.70;;;;;;5070752;28;20020;-86
2021/10/13 13:06:48;;;;;;;3.63;1.00;;;22.00;68.80;;;;;;5071187;28;20024;-87